Flight Track Log - Related Links

Times and Time Zones

All times are in EDT time to prevent confusion due to time zone crossing. See the CTL17 flight status page for this flight to view local times or setup timezone preferences in your user account.

Time Position Orientation Groundspeed Altitude Reporting Facility
EDT Latitude Longitude Course Direction KTS MPH feet Rate Location/Type
Tue 06:36:03 PM 41.5708 -81.7017 340° North 133 153 2,200  Level Cleveland Center
Tue 06:37:04 PM 41.6061 -81.7244 334° Northwest 154 177 3,000 885 Climbing Cleveland Center
Tue 06:38:05 PM 41.6222 -81.7803 291° West 150 173 4,000 836 Climbing Cleveland Center
Tue 06:39:06 PM 41.6364 -81.8306 291° West 147 169 4,700 744 Climbing Cleveland Center
Tue 06:40:06 PM 41.6503 -81.8808 290° West 146 168 5,500 694 Climbing Cleveland Center
Tue 06:41:07 PM 41.6644 -81.9339 290° West 147 169 6,100 295 Climbing Cleveland Center
Tue 06:42:08 PM 41.6803 -81.9900 291° West 168 193 6,100 -49 Level Cleveland Center
Tue 06:43:09 PM 41.6961 -82.0542 288° West 174 200 6,000 -50 Descending Cleveland Center
Tue 06:44:09 PM 41.7100 -82.1158 287° West 172 198 6,000  Level Cleveland Center
Tue 06:45:10 PM 41.7258 -82.1744 290° West 171 197 6,000  Level Cleveland Center
Tue 06:46:11 PM 41.7439 -82.2333 292° West 171 197 6,000  Level Cleveland Center
Tue 06:47:13 PM 41.7617 -82.3006 290° West 172 198 6,000  Level Cleveland Center
Tue 06:48:38 PM 41.7853 -82.3792 292° West 171 197 6,000  Level Cleveland Center
Tue 06:49:33 PM 41.7969 -82.4353 286° West 169 194 6,000  Level Cleveland Center
Tue 06:50:28 PM 41.8106 -82.4914 288° West 167 192 6,000  Level Cleveland Center
Tue 06:51:29 PM 41.8242 -82.5503 287° West 169 194 6,000  Level Cleveland Center
Tue 06:52:30 PM 41.8378 -82.6122 286° West 169 194 6,000 -148 Level Cleveland Center
Tue 06:53:31 PM 41.8786 -82.6553 322° Northwest 191 220 5,700 -375 Descending Cleveland Center
Tue 06:54:38 PM 41.9300 -82.6933 331° Northwest 200 230 5,200 -516 Descending Cleveland Center
Tue 06:55:39 PM 41.9775 -82.7256 333° Northwest 197 227 4,600 -541 Descending Cleveland Center
Tue 06:56:40 PM 42.0247 -82.7661 327° Northwest 196 226 4,100 -261 Descending Cleveland Center
Tue 06:57:34 PM 42.0678 -82.7956 333° Northwest 187 215 4,100 -52 Level Cleveland Center
Tue 06:58:35 PM 42.1131 -82.8253 334° Northwest 173 199 4,000 -49 Descending Cleveland Center
Tue 06:59:36 PM 42.1542 -82.8575 330° Northwest 172 198 4,000  Level Cleveland Center
Tue 07:00:37 PM 42.1994 -82.8872 334° Northwest 173 199 4,000  Level Cleveland Center
Tue 07:01:38 PM 42.2406 -82.9167 332° Northwest 175 201 4,000 49 Level Cleveland Center
Tue 07:02:39 PM 42.2817 -82.9492 330° Northwest 172 198 4,100  Climbing Cleveland Center
Tue 07:03:40 PM 42.3289 -82.9817 333° Northwest 170 196 4,000 -50 Descending Cleveland Center
Tue 07:04:40 PM 42.3678 -83.0086 333° Northwest 169 194 4,000  Level Cleveland Center
Tue 07:05:41 PM 42.4022 -83.0547 315° West 172 198 4,000  Level Cleveland Center
Tue 07:06:42 PM 42.4347 -83.1039 312° West 173 199 4,000 -207 Level Cleveland Center
Tue 07:07:37 PM 42.4692 -83.1503 315° West 184 212 3,600 -517 Descending Cleveland Center
Tue 07:08:38 PM 42.5033 -83.1997 313° West 181 208 3,000 -283 Descending Cleveland Center
Tue 07:09:44 PM 42.5397 -83.2461 317° Northwest 168 193 3,000  Level Cleveland Center
Tue 07:10:45 PM 42.5722 -83.2900 315° West 168 193 3,000 -207 Level Cleveland Center
Tue 07:11:40 PM 42.6025 -83.3336 313° West 173 199 2,600 -517 Descending Cleveland Center
Tue 07:12:41 PM 42.6322 -83.3914 305° West 185 213 2,000 -469 Descending Cleveland Center
Tue 07:13:48 PM 42.6433 -83.4511 284° West 135 155 1,600 -358 Descending Cleveland Center
Tue 07:15:00 PM 42.6500 -83.4167 304° West  Level FlightAware Approximate

Login

Don't have an account? Register now (free) for customized features, flight alerts, and more!